Hauptseite
METAR-TAF:

METAR-TAF

Flughäfen :

Flugplatz Laupheim

Laupheim, Deutschland

Breite: 48-13N, Länge: 009-55E, Höhe: 538 m

Beobachtung

Neuester Wetterbericht von vor 24 Minuten, um 14:20 UTC
Wind 4 kt aus Süd/Südwest
Temperatur 5°C
Luftfeuchtigkeit 70%
Luftdruck 1022 hPa
Sichtweite 10 km oder mehr
Leicht bewölkt in der Höhe von 28000 ft

METAR: ETHL 241420Z 21004KT 9999 FEW280 05/M00 Q1022 BLU+

Zeit: 15:44 (14:44 UTC)

Prognose

Neuester Wetterbericht von vor 1 Stunde und 44 Minuten, um 13:00 UTC
Gültige Prognose vom 24 um 13 UTC bis 24 um 21 UTC
Wind 10 kt aus Südwest
Sichtweite: 1315 m
Himmel klar

TAF: ETHL 241300Z 2413/2421 22010KT 9999 NSW SKC CANCEL 1315

Wetterbeobachtungen und Prognosen von mehr als 4000 Flughäfen (METAR und TAF Bericht).

Die verfügbaren Stationen werden durch gelbe und rote Markierungen auf der Karte dargestellt.

Führen Sie die Maus auf sie, um den Namen der Station zu sehen.

Darauf klicken, um die Beobachtung von Wetterbeobachtungen und Prognosen zu sehen.

Um die Karte zu ändern : klicken Sie auf den grünen Tasten mit einem schwarzen Kreuz Zum Vergrößern, auf den grünen Button mit einem Gedankenstrich zu verkleinern, oder auf die grünen Pfeile für benachbarte Karten.


METAR-TAF: